Conception — WYR8548 — position and weather

sailwx.info

Track history (hours):
 
Tides and Currents Weather Stations Pressure Air Temp Water Temp Dewpoint Dewpoint Depression Visibility Wind Speed Wind Dir Waves Ship Positions

Conception

Owner: TRUTH AQUATICS, SANTA BARBARA, CA. More information available from US FCC via Universal Licensing System and Coast Guard Vessel Documentation Center.

Last reported at 2018-Jun-25 13:22 UTC. Time now 2018-Jun-25 15:45 UTC.
Position N 34°24' W 119°41'.

Length 24 m.

Type: Diving. MMSI: 367098480.

Date/timePositionNaut miles runAvg speedWind from/ knotsBaromVisibWave heightAir tempDewpointWater temp
2018-Jun-25 13:22N 34°24' W 119°41'0 0.0
2018-Jun-25 04:31N 34°24' W 119°41'0 0.0
2018-Jun-25 04:07N 34°24' W 119°41'0 0.0
2018-Jun-24 22:46N 34°24' W 119°41'0 0.0
2018-Jun-24 15:55N 34°24' W 119°41'0 0.0
2018-Jun-24 04:37N 34°24' W 119°41'0 0.0
2018-Jun-24 01:04N 34°24' W 119°41'0 0.1
2018-Jun-23 23:32N 34°24' W 119°41'2 7.5
2018-Jun-23 23:14N 34°22' W 119°41'310.0
2018-Jun-23 22:55N 34°19' W 119°42'510.2
2018-Jun-23 22:24N 34°14' W 119°44'510.2
2018-Jun-23 21:55N 34°09' W 119°45'510.2
2018-Jun-23 21:23N 34°04' W 119°47'2 3.6
2018-Jun-23 20:56N 34°03' W 119°49'0 0.0
2018-Jun-23 19:41N 34°03' W 119°49'0 0.3
2018-Jun-23 19:30N 34°03' W 119°49'0 0.6
2018-Jun-23 18:42N 34°03' W 119°48'0 0.0
2018-Jun-23 18:12N 34°03' W 119°48'0 0.0
2018-Jun-23 17:51N 34°03' W 119°48'1 3.3
2018-Jun-23 17:24N 34°04' W 119°50'0 0.1
2018-Jun-23 16:58N 34°04' W 119°50'0 0.0
2018-Jun-23 16:25N 34°04' W 119°50'0 0.0
2018-Jun-23 15:56N 34°04' W 119°50'1 1.2
2018-Jun-23 15:22N 34°04' W 119°51'0 0.0
2018-Jun-23 14:52N 34°04' W 119°51'0 0.0
2018-Jun-23 14:22N 34°04' W 119°51'0 0.0
2018-Jun-23 14:00N 34°04' W 119°51'3 5.5
2018-Jun-23 13:27N 34°04' W 119°47'2 3.2
2018-Jun-23 12:44N 34°03' W 119°44'0 0.1
2018-Jun-23 12:20N 34°03' W 119°44'0 0.0
2018-Jun-23 08:29N 34°03' W 119°44'0 0.0
2018-Jun-23 07:02N 34°03' W 119°44'0 0.0
2018-Jun-23 05:26N 34°03' W 119°44'0 0.0
2018-Jun-23 04:53N 34°03' W 119°44'0 0.0
2018-Jun-23 04:20N 34°03' W 119°44'0 0.0
2018-Jun-23 03:47N 34°03' W 119°44'0 0.0
2018-Jun-23 01:38N 34°03' W 119°44'0 0.2
2018-Jun-23 01:19N 34°03' W 119°44'0 0.2
2018-Jun-23 00:30N 34°03' W 119°44'0 0.1
2018-Jun-22 23:33N 34°03' W 119°44'0 0.7
2018-Jun-22 23:28N 34°03' W 119°44'0 0.4
2018-Jun-22 22:58N 34°03' W 119°44'0 0.0
2018-Jun-22 22:22N 34°03' W 119°44'0 0.0
2018-Jun-22 21:58N 34°03' W 119°44'2 4.6
2018-Jun-22 21:30N 34°04' W 119°47'2 4.2
2018-Jun-22 21:00N 34°03' W 119°49'0 0.0
2018-Jun-22 20:31N 34°03' W 119°49'0 0.1
2018-Jun-22 19:51N 34°03' W 119°49'1 1.2
2018-Jun-22 19:26N 34°04' W 119°50'0 0.0
2018-Jun-22 18:59N 34°04' W 119°50'0 0.0
2018-Jun-22 18:26N 34°04' W 119°50'0 0.4
2018-Jun-22 17:59N 34°04' W 119°50'1 1.8
2018-Jun-22 17:25N 34°04' W 119°51'0 0.0
2018-Jun-22 16:55N 34°04' W 119°51'0 0.0
2018-Jun-22 16:28N 34°04' W 119°51'3 1.1
2018-Jun-22 14:11N 34°03' W 119°48'0 0.1
2018-Jun-22 13:57N 34°03' W 119°48'1 2.1
2018-Jun-22 13:30N 34°04' W 119°48'5 9.9
2018-Jun-22 13:00N 34°09' W 119°48'7 9.6
2018-Jun-22 12:17N 34°16' W 119°47'910.0
2018-Jun-22 11:24N 34°24' W 119°41'1 0.3
2018-Jun-22 07:42N 34°24' W 119°41'0 0.0
2018-Jun-22 07:30N 34°24' W 119°41'0 0.0
2018-Jun-22 06:57N 34°24' W 119°41'0 0.0
2018-Jun-22 05:30N 34°24' W 119°41'0 0.0
2018-Jun-22 05:00N 34°24' W 119°41'0 0.0
2018-Jun-22 04:30N 34°24' W 119°41'0 0.0
2018-Jun-22 04:00N 34°24' W 119°41'0 0.0
2018-Jun-22 03:09N 34°24' W 119°41'0 0.0
2018-Jun-22 02:57N 34°24' W 119°41'0 0.0
2018-Jun-22 02:30N 34°24' W 119°41'0 0.0
2018-Jun-22 01:42N 34°24' W 119°41'0 0.0
2018-Jun-22 01:27N 34°24' W 119°41'0 0.0
2018-Jun-21 23:24N 34°24' W 119°41'0 0.0
2018-Jun-21 20:03N 34°24' W 119°41'0 0.0
2018-Jun-21 19:36N 34°24' W 119°41'0 0.0
2018-Jun-21 19:30N 34°24' W 119°41'0 0.0
2018-Jun-21 15:42N 34°24' W 119°41'0 0.0
2018-Jun-21 15:18N 34°24' W 119°41'0 0.0
2018-Jun-21 13:03N 34°24' W 119°41'0 0.0
2018-Jun-21 12:03N 34°24' W 119°41'0 0.0
2018-Jun-21 11:57N 34°24' W 119°41'0 0.0
2018-Jun-21 08:36N 34°24' W 119°41'0 0.0
2018-Jun-21 08:18N 34°24' W 119°41'0 0.0
2018-Jun-21 08:00N 34°24' W 119°41'0 0.0
2018-Jun-21 07:30N 34°24' W 119°41'0 0.0
2018-Jun-21 06:00N 34°24' W 119°41'0 0.0
2018-Jun-20 20:33N 34°24' W 119°41'0 0.0
2018-Jun-20 20:18N 34°24' W 119°41'0 0.0
2018-Jun-20 19:57N 34°24' W 119°41'0 0.0
2018-Jun-20 17:18N 34°24' W 119°41'0 0.0
2018-Jun-20 16:48N 34°24' W 119°41'0 0.0
2018-Jun-20 16:18N 34°24' W 119°41'0 0.0
2018-Jun-20 15:54N 34°24' W 119°41'0 0.0
2018-Jun-20 11:48N 34°24' W 119°41'0 0.0
2018-Jun-20 11:12N 34°24' W 119°41'0 0.0
2018-Jun-20 10:57N 34°24' W 119°41'0 0.0
2018-Jun-20 10:03N 34°24' W 119°41'0 0.0
2018-Jun-20 09:36N 34°24' W 119°41'0 0.0
2018-Jun-20 01:30N 34°24' W 119°41'0 0.0
2018-Jun-20 00:39N 34°24' W 119°41'0 0.0
2018-Jun-20 00:15N 34°24' W 119°41'0 0.0
2018-Jun-19 20:36N 34°24' W 119°41'0 0.0
2018-Jun-19 11:14N 34°24' W 119°41'0 0.0
2018-Jun-19 04:02N 34°24' W 119°41'0 0.0
2018-Jun-18 19:32N 34°24' W 119°41'0 0.0
2018-Jun-18 19:11N 34°24' W 119°41'0 0.0
2018-Jun-18 11:23N 34°24' W 119°41'0 0.0
2018-Jun-18 07:20N 34°24' W 119°41'0 0.0
2018-Jun-18 00:50N 34°24' W 119°41'4 8.1
2018-Jun-18 00:20N 34°20' W 119°43'610.3
2018-Jun-17 23:47N 34°15' W 119°46'310.3
2018-Jun-17 23:29N 34°13' W 119°48'4 8.3
2018-Jun-17 22:59N 34°09' W 119°49'3 6.1
2018-Jun-17 22:27N 34°06' W 119°51'2 2.5
2018-Jun-17 21:48N 34°04' W 119°51'0 0.0
2018-Jun-17 21:24N 34°04' W 119°51'0 0.0
2018-Jun-17 20:51N 34°04' W 119°51'0 0.2
2018-Jun-17 20:28N 34°04' W 119°51'2 3.3
2018-Jun-17 19:59N 34°04' W 119°53'0 0.0
2018-Jun-17 19:23N 34°04' W 119°53'0 0.0
2018-Jun-17 18:56N 34°04' W 119°53'0 0.0
2018-Jun-17 18:11N 34°04' W 119°53'0 0.0
2018-Jun-17 17:58N 34°04' W 119°53'6 8.1
2018-Jun-17 17:16N 34°10' W 119°50'310.5
2018-Jun-17 17:00N 34°12' W 119°48'510.2
2018-Jun-17 16:30N 34°17' W 119°45'9 3.9
2018-Jun-17 14:17N 34°24' W 119°41'0 0.0
2018-Jun-17 13:50N 34°24' W 119°41'0 0.0
2018-Jun-17 06:59N 34°24' W 119°41'0 0.0
2018-Jun-17 05:23N 34°24' W 119°41'0 0.0
2018-Jun-17 04:20N 34°24' W 119°41'0 0.0
2018-Jun-17 03:44N 34°24' W 119°41'0 0.0
2018-Jun-17 00:37N 34°24' W 119°41'1 5.3
2018-Jun-17 00:21N 34°23' W 119°41'510.4
2018-Jun-16 23:51N 34°18' W 119°41'1110.6
2018-Jun-16 22:51N 34°07' W 119°42'2 2.9
2018-Jun-16 22:10N 34°06' W 119°44'210.1
2018-Jun-16 21:59N 34°04' W 119°44'1 1.8
2018-Jun-16 21:20N 34°03' W 119°44'0 0.0
2018-Jun-16 20:59N 34°03' W 119°44'0 0.1
2018-Jun-16 20:23N 34°03' W 119°44'0 1.0
2018-Jun-16 19:58N 34°03' W 119°45'0 0.0
2018-Jun-16 18:39N 34°03' W 119°45'0 1.0
2018-Jun-16 18:30N 34°03' W 119°45'0 0.8
2018-Jun-16 17:55N 34°03' W 119°45'0 0.0
2018-Jun-16 17:28N 34°03' W 119°45'0 0.0
2018-Jun-16 16:55N 34°03' W 119°45'0 0.0
2018-Jun-16 16:28N 34°03' W 119°45'0 0.0
2018-Jun-16 15:55N 34°03' W 119°45'0 0.0
2018-Jun-16 15:22N 34°03' W 119°45'0 0.0
2018-Jun-16 14:58N 34°03' W 119°45'0 0.0
2018-Jun-16 14:08N 34°03' W 119°45'0 0.0
2018-Jun-16 13:59N 34°03' W 119°45'2 4.9
2018-Jun-16 13:29N 34°04' W 119°48'3 6.2
2018-Jun-16 12:58N 34°03' W 119°44'4 7.2
2018-Jun-16 12:27N 34°05' W 119°41'2 4.9
2018-Jun-16 11:57N 34°03' W 119°40'5 9.8
2018-Jun-16 11:25N 34°04' W 119°34'4 9.4
2018-Jun-16 10:58N 34°02' W 119°30'510.1
2018-Jun-16 10:27N 33°59' W 119°25'511.0
2018-Jun-16 09:57N 33°56' W 119°20'810.6
2018-Jun-16 09:13N 33°51' W 119°12'210.8
2018-Jun-16 09:00N 33°50' W 119°09'  
Track history (hours):
 
Tides and Currents Weather Stations Pressure Air Temp Water Temp Dewpoint Dewpoint Depression Visibility Wind Speed Wind Dir Waves Ship Positions

Conception

Owner: TRUTH AQUATICS, SANTA BARBARA, CA. More information available from US FCC via Universal Licensing System and Coast Guard Vessel Documentation Center.

Last reported at 2018-Jun-25 13:22 UTC. Time now 2018-Jun-25 15:45 UTC.
Position N 34°24' W 119°41'.

Length 24 m.

Type: Diving. MMSI: 367098480.

Date/timePositionNaut miles runAvg speedWind from/ knotsBaromVisibWave heightAir tempDewpointWater temp
2018-Jun-25 13:22N 34°24' W 119°41'0 0.0
2018-Jun-25 04:31N 34°24' W 119°41'0 0.0
2018-Jun-25 04:07N 34°24' W 119°41'0 0.0
2018-Jun-24 22:46N 34°24' W 119°41'0 0.0
2018-Jun-24 15:55N 34°24' W 119°41'0 0.0
2018-Jun-24 04:37N 34°24' W 119°41'0 0.0
2018-Jun-24 01:04N 34°24' W 119°41'0 0.1
2018-Jun-23 23:32N 34°24' W 119°41'2 7.5
2018-Jun-23 23:14N 34°22' W 119°41'310.0
2018-Jun-23 22:55N 34°19' W 119°42'510.2
2018-Jun-23 22:24N 34°14' W 119°44'510.2
2018-Jun-23 21:55N 34°09' W 119°45'510.2
2018-Jun-23 21:23N 34°04' W 119°47'2 3.6
2018-Jun-23 20:56N 34°03' W 119°49'0 0.0
2018-Jun-23 19:41N 34°03' W 119°49'0 0.3
2018-Jun-23 19:30N 34°03' W 119°49'0 0.6
2018-Jun-23 18:42N 34°03' W 119°48'0 0.0
2018-Jun-23 18:12N 34°03' W 119°48'0 0.0
2018-Jun-23 17:51N 34°03' W 119°48'1 3.3
2018-Jun-23 17:24N 34°04' W 119°50'0 0.1
2018-Jun-23 16:58N 34°04' W 119°50'0 0.0
2018-Jun-23 16:25N 34°04' W 119°50'0 0.0
2018-Jun-23 15:56N 34°04' W 119°50'1 1.2
2018-Jun-23 15:22N 34°04' W 119°51'0 0.0
2018-Jun-23 14:52N 34°04' W 119°51'0 0.0
2018-Jun-23 14:22N 34°04' W 119°51'0 0.0
2018-Jun-23 14:00N 34°04' W 119°51'3 5.5
2018-Jun-23 13:27N 34°04' W 119°47'2 3.2
2018-Jun-23 12:44N 34°03' W 119°44'0 0.1
2018-Jun-23 12:20N 34°03' W 119°44'0 0.0
2018-Jun-23 08:29N 34°03' W 119°44'0 0.0
2018-Jun-23 07:02N 34°03' W 119°44'0 0.0
2018-Jun-23 05:26N 34°03' W 119°44'0 0.0
2018-Jun-23 04:53N 34°03' W 119°44'0 0.0
2018-Jun-23 04:20N 34°03' W 119°44'0 0.0
2018-Jun-23 03:47N 34°03' W 119°44'0 0.0
2018-Jun-23 01:38N 34°03' W 119°44'0 0.2
2018-Jun-23 01:19N 34°03' W 119°44'0 0.2
2018-Jun-23 00:30N 34°03' W 119°44'0 0.1
2018-Jun-22 23:33N 34°03' W 119°44'0 0.7
2018-Jun-22 23:28N 34°03' W 119°44'0 0.4
2018-Jun-22 22:58N 34°03' W 119°44'0 0.0
2018-Jun-22 22:22N 34°03' W 119°44'0 0.0
2018-Jun-22 21:58N 34°03' W 119°44'2 4.6
2018-Jun-22 21:30N 34°04' W 119°47'2 4.2
2018-Jun-22 21:00N 34°03' W 119°49'0 0.0
2018-Jun-22 20:31N 34°03' W 119°49'0 0.1
2018-Jun-22 19:51N 34°03' W 119°49'1 1.2
2018-Jun-22 19:26N 34°04' W 119°50'0 0.0
2018-Jun-22 18:59N 34°04' W 119°50'0 0.0
2018-Jun-22 18:26N 34°04' W 119°50'0 0.4
2018-Jun-22 17:59N 34°04' W 119°50'1 1.8
2018-Jun-22 17:25N 34°04' W 119°51'0 0.0
2018-Jun-22 16:55N 34°04' W 119°51'0 0.0
2018-Jun-22 16:28N 34°04' W 119°51'3 1.1
2018-Jun-22 14:11N 34°03' W 119°48'0 0.1
2018-Jun-22 13:57N 34°03' W 119°48'1 2.1
2018-Jun-22 13:30N 34°04' W 119°48'5 9.9
2018-Jun-22 13:00N 34°09' W 119°48'7 9.6
2018-Jun-22 12:17N 34°16' W 119°47'910.0
2018-Jun-22 11:24N 34°24' W 119°41'1 0.3
2018-Jun-22 07:42N 34°24' W 119°41'0 0.0
2018-Jun-22 07:30N 34°24' W 119°41'0 0.0
2018-Jun-22 06:57N 34°24' W 119°41'0 0.0
2018-Jun-22 05:30N 34°24' W 119°41'0 0.0
2018-Jun-22 05:00N 34°24' W 119°41'0 0.0
2018-Jun-22 04:30N 34°24' W 119°41'0 0.0
2018-Jun-22 04:00N 34°24' W 119°41'0 0.0
2018-Jun-22 03:09N 34°24' W 119°41'0 0.0
2018-Jun-22 02:57N 34°24' W 119°41'0 0.0
2018-Jun-22 02:30N 34°24' W 119°41'0 0.0
2018-Jun-22 01:42N 34°24' W 119°41'0 0.0
2018-Jun-22 01:27N 34°24' W 119°41'0 0.0
2018-Jun-21 23:24N 34°24' W 119°41'0 0.0
2018-Jun-21 20:03N 34°24' W 119°41'0 0.0
2018-Jun-21 19:36N 34°24' W 119°41'0 0.0
2018-Jun-21 19:30N 34°24' W 119°41'0 0.0
2018-Jun-21 15:42N 34°24' W 119°41'0 0.0
2018-Jun-21 15:18N 34°24' W 119°41'0 0.0
2018-Jun-21 13:03N 34°24' W 119°41'0 0.0
2018-Jun-21 12:03N 34°24' W 119°41'0 0.0
2018-Jun-21 11:57N 34°24' W 119°41'0 0.0
2018-Jun-21 08:36N 34°24' W 119°41'0 0.0
2018-Jun-21 08:18N 34°24' W 119°41'0 0.0
2018-Jun-21 08:00N 34°24' W 119°41'0 0.0
2018-Jun-21 07:30N 34°24' W 119°41'0 0.0
2018-Jun-21 06:00N 34°24' W 119°41'0 0.0
2018-Jun-20 20:33N 34°24' W 119°41'0 0.0
2018-Jun-20 20:18N 34°24' W 119°41'0 0.0
2018-Jun-20 19:57N 34°24' W 119°41'0 0.0
2018-Jun-20 17:18N 34°24' W 119°41'0 0.0
2018-Jun-20 16:48N 34°24' W 119°41'0 0.0
2018-Jun-20 16:18N 34°24' W 119°41'0 0.0
2018-Jun-20 15:54N 34°24' W 119°41'0 0.0
2018-Jun-20 11:48N 34°24' W 119°41'0 0.0
2018-Jun-20 11:12N 34°24' W 119°41'0 0.0
2018-Jun-20 10:57N 34°24' W 119°41'0 0.0
2018-Jun-20 10:03N 34°24' W 119°41'0 0.0
2018-Jun-20 09:36N 34°24' W 119°41'0 0.0
2018-Jun-20 01:30N 34°24' W 119°41'0 0.0
2018-Jun-20 00:39N 34°24' W 119°41'0 0.0
2018-Jun-20 00:15N 34°24' W 119°41'0 0.0
2018-Jun-19 20:36N 34°24' W 119°41'0 0.0
2018-Jun-19 11:14N 34°24' W 119°41'0 0.0
2018-Jun-19 04:02N 34°24' W 119°41'0 0.0
2018-Jun-18 19:32N 34°24' W 119°41'0 0.0
2018-Jun-18 19:11N 34°24' W 119°41'0 0.0
2018-Jun-18 11:23N 34°24' W 119°41'0 0.0
2018-Jun-18 07:20N 34°24' W 119°41'0 0.0
2018-Jun-18 00:50N 34°24' W 119°41'4 8.1
2018-Jun-18 00:20N 34°20' W 119°43'610.3
2018-Jun-17 23:47N 34°15' W 119°46'310.3
2018-Jun-17 23:29N 34°13' W 119°48'4 8.3
2018-Jun-17 22:59N 34°09' W 119°49'3 6.1
2018-Jun-17 22:27N 34°06' W 119°51'2 2.5
2018-Jun-17 21:48N 34°04' W 119°51'0 0.0
2018-Jun-17 21:24N 34°04' W 119°51'0 0.0
2018-Jun-17 20:51N 34°04' W 119°51'0 0.2
2018-Jun-17 20:28N 34°04' W 119°51'2 3.3
2018-Jun-17 19:59N 34°04' W 119°53'0 0.0
2018-Jun-17 19:23N 34°04' W 119°53'0 0.0
2018-Jun-17 18:56N 34°04' W 119°53'0 0.0
2018-Jun-17 18:11N 34°04' W 119°53'0 0.0
2018-Jun-17 17:58N 34°04' W 119°53'6 8.1
2018-Jun-17 17:16N 34°10' W 119°50'310.5
2018-Jun-17 17:00N 34°12' W 119°48'510.2
2018-Jun-17 16:30N 34°17' W 119°45'9 3.9
2018-Jun-17 14:17N 34°24' W 119°41'0 0.0
2018-Jun-17 13:50N 34°24' W 119°41'0 0.0
2018-Jun-17 06:59N 34°24' W 119°41'0 0.0
2018-Jun-17 05:23N 34°24' W 119°41'0 0.0
2018-Jun-17 04:20N 34°24' W 119°41'0 0.0
2018-Jun-17 03:44N 34°24' W 119°41'0 0.0
2018-Jun-17 00:37N 34°24' W 119°41'1 5.3
2018-Jun-17 00:21N 34°23' W 119°41'510.4
2018-Jun-16 23:51N 34°18' W 119°41'1110.6
2018-Jun-16 22:51N 34°07' W 119°42'2 2.9
2018-Jun-16 22:10N 34°06' W 119°44'210.1
2018-Jun-16 21:59N 34°04' W 119°44'1 1.8
2018-Jun-16 21:20N 34°03' W 119°44'0 0.0
2018-Jun-16 20:59N 34°03' W 119°44'0 0.1
2018-Jun-16 20:23N 34°03' W 119°44'0 1.0
2018-Jun-16 19:58N 34°03' W 119°45'0 0.0
2018-Jun-16 18:39N 34°03' W 119°45'0 1.0
2018-Jun-16 18:30N 34°03' W 119°45'0 0.8
2018-Jun-16 17:55N 34°03' W 119°45'0 0.0
2018-Jun-16 17:28N 34°03' W 119°45'0 0.0
2018-Jun-16 16:55N 34°03' W 119°45'0 0.0
2018-Jun-16 16:28N 34°03' W 119°45'0 0.0
2018-Jun-16 15:55N 34°03' W 119°45'0 0.0
2018-Jun-16 15:22N 34°03' W 119°45'0 0.0
2018-Jun-16 14:58N 34°03' W 119°45'0 0.0
2018-Jun-16 14:08N 34°03' W 119°45'0 0.0
2018-Jun-16 13:59N 34°03' W 119°45'2 4.9
2018-Jun-16 13:29N 34°04' W 119°48'3 6.2
2018-Jun-16 12:58N 34°03' W 119°44'4 7.2
2018-Jun-16 12:27N 34°05' W 119°41'2 4.9
2018-Jun-16 11:57N 34°03' W 119°40'5 9.8
2018-Jun-16 11:25N 34°04' W 119°34'4 9.4
2018-Jun-16 10:58N 34°02' W 119°30'510.1
2018-Jun-16 10:27N 33°59' W 119°25'511.0
2018-Jun-16 09:57N 33°56' W 119°20'810.6
2018-Jun-16 09:13N 33°51' W 119°12'210.8
2018-Jun-16 09:00N 33°50' W 119°09'  

Dump ship's entire track history